Time;durP1;ratioP1;P1;durP2;ratioP2;P2;SDS_P1;SDS_P2;PMS_P1;PMS_P2;Temp;Humidity;BMP_temperature;BMP_pressure;BME280_temperature;BME280_humidity;BME280_pressure;Samples;Min_cycle;Max_cycle;Signal;HPM_P1;HPM_P2
2023/07/10 00:00:20;;;;;;;1.73;0.70;;;18.00;99.90;;;;;;5005703;28;20080;-75
2023/07/10 00:02:48;;;;;;;1.38;0.70;;;18.00;99.90;;;;;;5040293;28;20053;-76
2023/07/10 00:05:17;;;;;;;1.10;0.70;;;18.00;99.90;;;;;;5037999;28;20552;-75
2023/07/10 00:07:45;;;;;;;0.98;0.57;;;18.10;99.90;;;;;;5022881;28;20057;-75
2023/07/10 00:10:13;;;;;;;0.75;0.50;;;18.10;99.90;;;;;;5022050;28;20138;-75
2023/07/10 00:12:41;;;;;;;1.50;0.68;;;18.10;99.90;;;;;;5004715;28;20049;-75
2023/07/10 00:15:19;;;;;;;1.52;0.65;;;18.10;99.90;;;;;;5011325;28;20682;-75
2023/07/10 00:17:50;;;;;;;1.15;0.50;;;18.10;99.90;;;;;;5022384;28;20052;-75
2023/07/10 00:20:19;;;;;;;1.02;0.40;;;18.10;99.90;;;;;;5021397;28;20045;-75
2023/07/10 00:22:46;;;;;;;1.27;0.63;;;18.10;99.90;;;;;;5038840;28;20103;-76
2023/07/10 00:25:17;;;;;;;3.03;0.73;;;18.10;99.90;;;;;;5021531;28;20645;-75
2023/07/10 00:27:48;;;;;;;0.50;0.50;;;18.10;99.90;;;;;;5006521;28;20148;-75
2023/07/10 00:30:16;;;;;;;2.20;0.85;;;18.00;99.90;;;;;;5005114;28;20099;-75
2023/07/10 00:32:44;;;;;;;2.15;1.02;;;18.00;99.90;;;;;;5021718;28;20731;-74
2023/07/10 00:35:17;;;;;;;1.13;0.50;;;17.90;99.90;;;;;;5001161;28;20080;-75
2023/07/10 00:37:45;;;;;;;;;;;17.80;99.90;;;;;;5019406;28;20057;-75
2023/07/10 00:40:22;;;;;;;1.40;0.70;;;17.80;99.90;;;;;;5021917;28;20554;-76
2023/07/10 00:42:55;;;;;;;1.00;0.60;;;17.70;99.90;;;;;;4974128;28;20041;-75
2023/07/10 00:45:22;;;;;;;1.20;0.50;;;17.60;99.90;;;;;;5001135;28;20049;-75
2023/07/10 00:48:01;;;;;;;1.33;0.68;;;17.60;99.90;;;;;;5002890;28;20492;-74
2023/07/10 00:50:45;;;;;;;2.83;0.75;;;17.50;99.90;;;;;;5035314;28;20057;-75
2023/07/10 00:53:34;;;;;;;1.42;0.60;;;17.50;99.90;;;;;;5009732;28;20059;-76
2023/07/10 00:56:01;;;;;;;1.15;0.57;;;17.50;99.90;;;;;;5008885;28;20149;-76
2023/07/10 00:58:39;;;;;;;1.20;0.45;;;17.40;99.90;;;;;;5025528;28;20048;-76
2023/07/10 01:01:07;;;;;;;1.45;0.50;;;17.40;99.90;;;;;;5025730;28;20466;-77
2023/07/10 01:03:35;;;;;;;0.93;0.60;;;17.30;99.90;;;;;;5025901;28;20084;-76
2023/07/10 01:06:12;;;;;;;1.98;0.60;;;17.30;99.90;;;;;;5024760;28;20103;-75
2023/07/10 01:08:40;;;;;;;1.17;0.50;;;17.30;99.90;;;;;;5008640;28;20102;-75
2023/07/10 01:11:07;;;;;;;1.35;0.68;;;17.20;99.90;;;;;;5024773;28;20053;-75
2023/07/10 01:13:37;;;;;;;1.50;0.60;;;17.20;99.90;;;;;;5025117;28;20045;-76
2023/07/10 01:16:04;;;;;;;0.85;0.52;;;17.20;99.90;;;;;;5024584;28;20236;-76
2023/07/10 01:18:32;;;;;;;1.50;0.60;;;17.10;99.90;;;;;;5025812;28;20402;-76
2023/07/10 01:21:31;;;;;;;0.70;0.55;;;17.10;99.90;;;;;;5024238;28;20101;-76
2023/07/10 01:24:00;;;;;;;1.02;0.50;;;17.00;99.90;;;;;;5025402;28;20053;-76
2023/07/10 01:26:28;;;;;;;1.10;0.68;;;17.00;99.90;;;;;;5005413;28;20136;-75
2023/07/10 01:28:55;;;;;;;1.45;0.68;;;17.00;99.90;;;;;;5008524;28;20109;-76
2023/07/10 01:31:22;;;;;;;1.92;0.68;;;17.00;99.90;;;;;;5005907;28;20049;-75
2023/07/10 01:33:55;;;;;;;0.98;0.70;;;17.00;99.90;;;;;;5026219;28;20056;-76
2023/07/10 01:36:23;;;;;;;0.50;0.38;;;17.00;99.90;;;;;;5040738;28;20590;-76
2023/07/10 01:39:21;;;;;;;1.10;0.63;;;17.00;99.90;;;;;;5028246;28;20053;-76
2023/07/10 01:41:47;;;;;;;1.88;0.90;;;16.90;99.90;;;;;;5027617;28;20080;-76
2023/07/10 01:44:32;;;;;;;0.77;0.50;;;16.90;99.90;;;;;;5043195;28;20127;-76
2023/07/10 01:47:00;;;;;;;1.02;0.68;;;16.80;99.90;;;;;;5025927;28;20084;-76
2023/07/10 01:49:32;;;;;;;1.17;0.55;;;16.80;99.90;;;;;;5024884;28;20081;-76
2023/07/10 01:51:59;;;;;;;1.27;0.77;;;16.80;99.90;;;;;;5040877;28;20098;-76
2023/07/10 01:54:26;;;;;;;0.95;0.60;;;16.80;99.90;;;;;;5031775;28;20045;-76
2023/07/10 01:56:53;;;;;;;0.80;0.60;;;16.80;99.90;;;;;;5015394;28;20251;-75
2023/07/10 01:59:19;;;;;;;1.05;0.50;;;16.70;99.90;;;;;;5027999;28;20067;-76
2023/07/10 02:01:46;;;;;;;1.42;0.70;;;16.70;99.90;;;;;;5028762;28;20045;-75
2023/07/10 02:04:13;;;;;;;0.77;0.50;;;16.70;99.90;;;;;;5007904;28;20053;-76
2023/07/10 02:06:40;;;;;;;1.10;0.55;;;16.70;99.90;;;;;;5027565;28;20100;-76
2023/07/10 02:09:07;;;;;;;2.22;0.75;;;16.60;99.90;;;;;;5016103;28;20061;-76
2023/07/10 02:11:34;;;;;;;1.55;0.80;;;16.60;99.90;;;;;;5004305;28;20058;-75
2023/07/10 02:14:05;;;;;;;1.80;0.50;;;16.60;99.90;;;;;;5004356;28;20159;-75
2023/07/10 02:16:32;;;;;;;0.85;0.55;;;16.60;99.90;;;;;;5004323;28;20050;-75
2023/07/10 02:18:59;;;;;;;0.70;0.50;;;16.50;99.90;;;;;;5021168;28;20057;-75
2023/07/10 02:21:26;;;;;;;1.25;0.73;;;16.40;99.90;;;;;;5021052;28;20505;-74
2023/07/10 02:23:53;;;;;;;1.98;0.60;;;16.40;99.90;;;;;;5020161;28;20116;-74
2023/07/10 02:26:20;;;;;;;2.70;1.08;;;16.40;99.90;;;;;;4990377;28;20097;-75
2023/07/10 02:28:50;;;;;;;1.20;0.70;;;16.30;99.90;;;;;;5001354;28;20618;-76
2023/07/10 02:31:16;;;;;;;0.55;0.40;;;16.30;99.90;;;;;;5006050;28;20472;-75
2023/07/10 02:33:43;;;;;;;0.93;0.45;;;16.30;99.90;;;;;;5004842;28;20100;-75
2023/07/10 02:36:10;;;;;;;1.25;0.50;;;16.30;99.90;;;;;;5004894;28;20715;-75
2023/07/10 02:38:37;;;;;;;1.80;0.70;;;16.30;99.90;;;;;;5005600;28;20113;-75
2023/07/10 02:41:03;;;;;;;1.70;0.68;;;16.20;99.90;;;;;;5004874;28;20050;-76
2023/07/10 02:43:30;;;;;;;0.63;0.50;;;16.20;99.90;;;;;;4986839;28;20069;-75
2023/07/10 02:45:57;;;;;;;1.35;0.60;;;16.10;99.90;;;;;;5005490;28;20053;-75
2023/07/10 02:48:24;;;;;;;1.92;0.82;;;16.10;99.90;;;;;;4988111;28;20488;-75
2023/07/10 02:50:50;;;;;;;0.63;0.40;;;16.10;99.90;;;;;;5005464;28;20049;-75
2023/07/10 02:53:17;;;;;;;0.85;0.60;;;16.00;99.90;;;;;;5003625;28;20452;-75
2023/07/10 02:55:44;;;;;;;2.72;0.93;;;16.10;99.90;;;;;;5003674;28;20104;-75
2023/07/10 02:58:11;;;;;;;1.23;0.52;;;16.00;99.90;;;;;;4985977;28;20563;-76
2023/07/10 03:00:37;;;;;;;1.25;0.60;;;16.00;99.90;;;;;;5003411;28;20084;-75
2023/07/10 03:03:04;;;;;;;0.47;0.45;;;15.90;99.90;;;;;;5016790;28;20045;-76
2023/07/10 03:05:31;;;;;;;1.38;0.60;;;15.90;99.90;;;;;;4987283;28;20053;-75
2023/07/10 03:07:58;;;;;;;1.50;0.60;;;15.90;99.90;;;;;;5003167;28;20077;-75
2023/07/10 03:10:24;;;;;;;1.38;0.65;;;15.90;99.90;;;;;;5001610;28;20061;-76
2023/07/10 03:12:51;;;;;;;1.25;0.55;;;15.90;99.90;;;;;;5002547;28;20046;-75
2023/07/10 03:15:18;;;;;;;1.17;0.60;;;15.80;99.90;;;;;;5003949;28;20477;-75
2023/07/10 03:17:45;;;;;;;1.05;0.45;;;15.80;99.90;;;;;;5003748;28;20049;-75
2023/07/10 03:20:12;;;;;;;0.82;0.43;;;15.80;99.90;;;;;;4986460;28;20049;-76
2023/07/10 03:22:39;;;;;;;1.08;0.50;;;15.80;99.90;;;;;;4985487;28;20042;-75
2023/07/10 03:25:06;;;;;;;3.88;0.90;;;15.90;99.90;;;;;;5002194;28;20473;-75
2023/07/10 03:27:32;;;;;;;0.90;0.43;;;15.90;99.90;;;;;;5002854;28;20057;-75
2023/07/10 03:30:00;;;;;;;1.55;0.60;;;15.80;99.90;;;;;;5001779;28;20045;-75
2023/07/10 03:32:27;;;;;;;1.42;0.60;;;15.90;99.90;;;;;;5002323;28;20078;-75
2023/07/10 03:34:55;;;;;;;1.23;0.50;;;15.90;99.90;;;;;;5004114;28;20046;-76
2023/07/10 03:37:22;;;;;;;1.98;0.60;;;15.90;99.90;;;;;;5019530;28;20057;-76
2023/07/10 03:39:48;;;;;;;0.93;0.55;;;15.80;99.90;;;;;;5002566;28;20173;-75
2023/07/10 03:42:15;;;;;;;0.90;0.68;;;15.80;99.90;;;;;;5003002;28;20050;-76
2023/07/10 03:44:42;;;;;;;0.73;0.50;;;15.80;99.90;;;;;;5002223;28;20050;-75
2023/07/10 03:47:09;;;;;;;1.83;0.60;;;15.80;99.90;;;;;;5002642;28;20123;-75
2023/07/10 03:49:36;;;;;;;0.52;0.47;;;15.80;99.90;;;;;;4985701;28;20888;-75
2023/07/10 03:52:04;;;;;;;1.52;0.55;;;15.80;99.90;;;;;;5035760;28;20133;-77
2023/07/10 03:54:34;;;;;;;1.08;0.47;;;15.80;99.90;;;;;;5035100;28;20053;-75
2023/07/10 03:57:01;;;;;;;0.85;0.50;;;15.70;99.90;;;;;;4990319;28;20046;-76
2023/07/10 03:59:28;;;;;;;0.47;0.38;;;15.70;99.90;;;;;;5001634;28;20057;-75
2023/07/10 04:01:55;;;;;;;0.90;0.30;;;15.70;99.90;;;;;;5003737;28;20130;-76
2023/07/10 04:04:22;;;;;;;1.30;0.68;;;15.70;99.90;;;;;;4999589;28;20054;-76
2023/07/10 04:06:48;;;;;;;1.20;0.73;;;15.70;99.90;;;;;;5003802;28;20375;-76
2023/07/10 04:09:18;;;;;;;1.52;0.80;;;15.70;99.90;;;;;;4982445;28;20058;-76
2023/07/10 04:11:45;;;;;;;0.60;0.47;;;15.70;99.90;;;;;;4984828;28;20043;-76
2023/07/10 04:14:12;;;;;;;1.15;0.60;;;15.70;99.90;;;;;;5015735;28;20054;-76
2023/07/10 04:16:39;;;;;;;1.50;0.60;;;15.60;99.90;;;;;;4998600;28;20046;-76
2023/07/10 04:19:06;;;;;;;1.05;0.60;;;15.60;99.90;;;;;;5003076;28;20610;-76
2023/07/10 04:21:34;;;;;;;1.27;0.57;;;15.70;99.90;;;;;;5002759;28;20409;-76
2023/07/10 04:24:04;;;;;;;1.27;0.77;;;15.70;99.90;;;;;;5002042;28;20140;-76
2023/07/10 04:26:31;;;;;;;0.75;0.45;;;15.70;99.90;;;;;;5001851;28;20077;-76
2023/07/10 04:29:00;;;;;;;1.48;0.55;;;15.60;99.90;;;;;;5002438;28;20057;-76
2023/07/10 04:31:27;;;;;;;1.33;0.68;;;15.60;99.90;;;;;;5001882;28;20053;-76
2023/07/10 04:33:54;;;;;;;1.02;0.52;;;15.60;99.90;;;;;;4986595;28;20085;-76
2023/07/10 04:36:20;;;;;;;1.67;0.75;;;15.60;99.90;;;;;;4984855;28;20616;-76
2023/07/10 04:38:48;;;;;;;0.98;0.52;;;15.60;99.90;;;;;;5002277;28;20067;-76
2023/07/10 04:41:17;;;;;;;1.00;0.50;;;15.60;99.90;;;;;;5002960;28;20540;-75
2023/07/10 04:43:44;;;;;;;0.68;0.50;;;15.60;99.90;;;;;;4993601;28;20081;-77
2023/07/10 04:46:12;;;;;;;1.45;0.65;;;15.60;99.90;;;;;;5018546;28;20080;-76
2023/07/10 04:48:38;;;;;;;1.10;0.55;;;15.50;99.90;;;;;;5002841;28;20062;-75
2023/07/10 04:51:07;;;;;;;1.08;0.52;;;15.50;99.90;;;;;;5003645;28;20394;-75
2023/07/10 04:53:34;;;;;;;1.35;0.70;;;15.50;99.90;;;;;;5001440;28;20054;-75
2023/07/10 04:56:03;;;;;;;1.80;0.90;;;15.50;99.90;;;;;;4986672;28;20414;-76
2023/07/10 04:58:50;;;;;;;1.60;0.50;;;15.50;99.90;;;;;;4985666;28;20045;-76
2023/07/10 05:01:19;;;;;;;2.50;0.70;;;15.60;99.90;;;;;;5001433;28;20046;-76
2023/07/10 05:03:46;;;;;;;1.25;0.50;;;15.60;99.90;;;;;;4997428;28;20050;-77
2023/07/10 05:06:13;;;;;;;1.13;0.70;;;15.60;99.90;;;;;;4983416;28;20045;-76
2023/07/10 05:08:40;;;;;;;1.48;0.50;;;15.60;99.90;;;;;;4998258;28;20058;-76
2023/07/10 05:11:07;;;;;;;0.52;0.40;;;15.60;99.90;;;;;;5025317;28;20391;-77
2023/07/10 05:13:33;;;;;;;0.68;0.50;;;15.70;99.90;;;;;;5002848;28;20113;-75
2023/07/10 05:16:00;;;;;;;0.63;0.43;;;15.70;99.90;;;;;;4999970;28;20042;-76
2023/07/10 05:18:27;;;;;;;1.08;0.68;;;15.70;99.90;;;;;;5021888;28;20120;-75
2023/07/10 05:20:54;;;;;;;1.60;0.77;;;15.80;99.90;;;;;;4999789;28;20046;-76
2023/07/10 05:23:21;;;;;;;0.70;0.60;;;15.80;99.90;;;;;;4998581;28;20060;-76
2023/07/10 05:25:58;;;;;;;1.00;0.50;;;15.70;99.90;;;;;;4995679;28;20054;-75
2023/07/10 05:28:25;;;;;;;1.08;0.60;;;15.80;99.90;;;;;;4979833;28;20058;-76
2023/07/10 05:30:52;;;;;;;2.22;0.70;;;15.80;99.90;;;;;;4978032;28;20110;-75
2023/07/10 05:33:19;;;;;;;1.83;0.60;;;15.80;99.90;;;;;;4982418;28;20057;-75
2023/07/10 05:35:54;;;;;;;0.50;0.35;;;15.80;99.90;;;;;;4995023;28;20603;-78
2023/07/10 05:38:22;;;;;;;0.45;0.38;;;15.90;99.90;;;;;;4992264;28;20120;-78
2023/07/10 05:40:49;;;;;;;1.45;0.55;;;15.90;99.90;;;;;;5018024;28;20046;-77
2023/07/10 05:43:16;;;;;;;1.55;0.60;;;15.90;99.90;;;;;;5000957;28;20156;-76
2023/07/10 05:45:42;;;;;;;1.13;0.50;;;16.00;99.90;;;;;;4984693;28;20108;-75
2023/07/10 05:48:09;;;;;;;0.70;0.40;;;16.00;99.90;;;;;;4997985;28;20050;-76
2023/07/10 05:50:37;;;;;;;1.23;0.50;;;16.10;99.90;;;;;;4997720;28;20367;-76
2023/07/10 05:53:04;;;;;;;1.27;0.70;;;16.10;99.90;;;;;;4996520;28;20140;-76
2023/07/10 05:55:31;;;;;;;0.57;0.40;;;16.10;99.90;;;;;;4998783;28;20077;-75
2023/07/10 05:57:58;;;;;;;1.52;0.75;;;16.10;99.90;;;;;;4997506;28;20112;-75
2023/07/10 06:00:25;;;;;;;1.98;0.50;;;16.20;99.90;;;;;;4994758;28;20797;-77
2023/07/10 06:02:51;;;;;;;1.35;0.60;;;16.20;99.90;;;;;;4995803;28;21152;-77
2023/07/10 06:05:18;;;;;;;0.73;0.52;;;16.30;99.90;;;;;;4979043;28;20157;-77
2023/07/10 06:07:45;;;;;;;2.08;0.70;;;16.40;99.90;;;;;;4978647;28;20121;-77
2023/07/10 06:10:12;;;;;;;1.20;0.73;;;16.40;99.90;;;;;;4975270;28;20054;-77
2023/07/10 06:12:41;;;;;;;1.85;0.70;;;16.50;99.90;;;;;;4992819;28;20057;-76
2023/07/10 06:15:09;;;;;;;0.95;0.50;;;16.60;99.90;;;;;;4997639;28;20121;-77
2023/07/10 06:17:35;;;;;;;2.05;0.73;;;16.60;99.90;;;;;;4998413;28;20085;-77
2023/07/10 06:20:03;;;;;;;1.48;0.70;;;16.70;99.90;;;;;;4994454;28;20193;-77
2023/07/10 06:22:30;;;;;;;1.58;0.80;;;16.80;99.90;;;;;;4980479;28;20157;-76
2023/07/10 06:24:56;;;;;;;1.95;0.80;;;16.90;99.90;;;;;;4999973;28;20842;-78
2023/07/10 06:27:23;;;;;;;1.60;0.68;;;16.90;99.90;;;;;;4982846;28;20061;-76
2023/07/10 06:29:51;;;;;;;0.90;0.43;;;17.00;99.90;;;;;;4996441;28;20466;-76
2023/07/10 06:32:19;;;;;;;1.73;0.57;;;17.10;99.90;;;;;;4997695;28;20096;-76
2023/07/10 06:34:46;;;;;;;1.02;0.70;;;17.10;99.90;;;;;;4979998;28;20075;-76
2023/07/10 06:37:13;;;;;;;1.00;0.77;;;17.20;99.90;;;;;;4996456;28;20141;-76
2023/07/10 06:39:41;;;;;;;1.25;0.47;;;17.30;99.90;;;;;;4980520;28;20148;-76
2023/07/10 06:42:07;;;;;;;0.50;0.30;;;17.50;99.90;;;;;;4984607;28;20052;-75
2023/07/10 06:44:34;;;;;;;2.80;0.63;;;17.60;99.90;;;;;;5012517;28;20600;-76
2023/07/10 06:47:01;;;;;;;1.08;0.60;;;17.70;99.90;;;;;;5013983;28;20050;-76
2023/07/10 06:49:28;;;;;;;0.90;0.50;;;17.80;99.90;;;;;;5014466;28;20135;-75
2023/07/10 06:51:55;;;;;;;1.73;0.65;;;17.90;99.90;;;;;;4999544;28;20172;-76
2023/07/10 06:54:21;;;;;;;1.70;0.98;;;17.90;99.90;;;;;;4999639;28;20598;-76
2023/07/10 06:56:48;;;;;;;1.20;0.70;;;17.90;99.90;;;;;;4997550;28;20073;-76
2023/07/10 06:59:21;;;;;;;0.80;0.50;;;17.90;99.90;;;;;;4997144;28;20053;-75
2023/07/10 07:01:48;;;;;;;1.65;0.68;;;18.00;99.90;;;;;;4966928;28;20089;-76
2023/07/10 07:04:15;;;;;;;0.63;0.40;;;18.10;99.90;;;;;;4998617;28;20076;-76
2023/07/10 07:06:42;;;;;;;0.60;0.30;;;18.20;99.90;;;;;;4999387;28;20046;-76
2023/07/10 07:09:09;;;;;;;1.52;0.50;;;18.30;99.90;;;;;;4997376;28;20433;-76
2023/07/10 07:11:36;;;;;;;0.60;0.40;;;18.40;99.90;;;;;;4997990;28;20095;-76
2023/07/10 07:14:03;;;;;;;1.83;0.60;;;18.50;99.90;;;;;;4998124;28;20104;-76
2023/07/10 07:16:30;;;;;;;1.52;0.65;;;18.60;99.90;;;;;;4998765;28;20137;-76
2023/07/10 07:18:56;;;;;;;1.30;0.50;;;18.70;99.90;;;;;;4997790;28;20049;-76
2023/07/10 07:21:37;;;;;;;1.15;0.50;;;18.80;99.90;;;;;;4997724;28;20120;-77
2023/07/10 07:24:04;;;;;;;1.48;0.52;;;18.90;99.90;;;;;;4998406;28;20083;-75
2023/07/10 07:26:31;;;;;;;0.68;0.65;;;19.00;99.90;;;;;;4996867;28;20104;-77
2023/07/10 07:28:58;;;;;;;1.05;0.50;;;19.10;99.90;;;;;;4995955;28;20049;-75
2023/07/10 07:31:25;;;;;;;1.90;0.40;;;19.20;99.90;;;;;;4980863;28;20060;-76
2023/07/10 07:33:51;;;;;;;1.45;0.65;;;19.30;99.90;;;;;;4997213;28;20065;-76
2023/07/10 07:36:18;;;;;;;0.63;0.32;;;19.40;99.90;;;;;;4993569;28;20054;-76
2023/07/10 07:38:45;;;;;;;0.75;0.40;;;19.40;99.90;;;;;;4996412;28;20081;-75
2023/07/10 07:41:12;;;;;;;0.55;0.28;;;19.50;99.90;;;;;;4996761;28;20100;-75
2023/07/10 07:43:39;;;;;;;0.95;0.40;;;19.60;99.90;;;;;;4995013;28;20096;-76
2023/07/10 07:46:05;;;;;;;2.65;0.55;;;19.60;99.90;;;;;;4996493;28;20054;-76
2023/07/10 07:48:33;;;;;;;2.60;0.80;;;19.60;99.90;;;;;;4996931;28;20634;-77
2023/07/10 07:51:04;;;;;;;1.65;0.77;;;19.60;99.90;;;;;;4982528;28;20414;-76
2023/07/10 07:53:33;;;;;;;0.77;0.52;;;19.80;99.90;;;;;;4982098;28;20053;-77
2023/07/10 07:56:00;;;;;;;2.05;0.45;;;19.90;99.90;;;;;;4981049;28;20080;-76
2023/07/10 07:58:28;;;;;;;0.93;0.55;;;20.00;99.90;;;;;;4997297;28;20172;-76
2023/07/10 08:00:55;;;;;;;1.40;0.47;;;20.00;99.90;;;;;;4999143;28;20050;-76
2023/07/10 08:03:22;;;;;;;0.93;0.47;;;20.10;99.90;;;;;;4997569;28;20139;-75
2023/07/10 08:05:49;;;;;;;1.05;0.52;;;20.20;99.90;;;;;;4996281;28;20049;-73
2023/07/10 08:08:16;;;;;;;1.50;0.85;;;20.10;99.90;;;;;;4997553;28;20149;-74
2023/07/10 08:10:48;;;;;;;1.30;0.40;;;20.10;99.90;;;;;;5019694;28;20061;-73
2023/07/10 08:13:16;;;;;;;0.80;0.60;;;20.00;99.90;;;;;;5019159;28;20049;-74
2023/07/10 08:15:43;;;;;;;1.80;0.63;;;20.00;99.90;;;;;;5037546;28;20056;-73
2023/07/10 08:18:10;;;;;;;0.70;0.32;;;20.10;99.90;;;;;;5003027;28;20125;-74
2023/07/10 08:20:37;;;;;;;2.28;0.63;;;20.20;99.90;;;;;;5003765;28;20080;-74
2023/07/10 08:23:04;;;;;;;1.88;0.60;;;20.30;99.90;;;;;;5019219;28;20807;-73
2023/07/10 08:25:31;;;;;;;1.40;0.60;;;20.50;99.90;;;;;;5004162;28;20444;-74
2023/07/10 08:27:58;;;;;;;1.83;0.80;;;20.50;99.90;;;;;;5019571;28;20056;-74
2023/07/10 08:30:25;;;;;;;2.25;0.65;;;20.50;99.90;;;;;;5003262;28;20064;-74
2023/07/10 08:32:52;;;;;;;1.17;0.70;;;20.40;99.90;;;;;;5003501;28;20134;-74
2023/07/10 08:35:19;;;;;;;0.95;0.70;;;20.50;99.90;;;;;;5037361;28;20053;-74
2023/07/10 08:37:47;;;;;;;2.15;0.95;;;20.70;99.90;;;;;;5037160;28;20053;-74
2023/07/10 08:40:32;;;;;;;1.33;0.70;;;20.90;99.90;;;;;;5019671;28;20064;-74
2023/07/10 08:43:04;;;;;;;0.90;0.50;;;21.10;99.90;;;;;;5018861;28;20052;-74
2023/07/10 08:45:35;;;;;;;1.83;0.52;;;21.30;99.90;;;;;;5003006;28;20071;-75
2023/07/10 08:48:46;;;;;;;1.10;0.63;;;21.40;99.90;;;;;;5020003;28;20049;-74
2023/07/10 08:51:19;;;;;;;1.90;0.60;;;21.40;99.90;;;;;;4981370;28;20445;-74
2023/07/10 08:53:52;;;;;;;1.90;0.70;;;21.40;99.90;;;;;;5037236;28;20064;-75
2023/07/10 08:56:42;;;;;;;3.00;0.82;;;21.30;99.90;;;;;;5003526;28;20142;-74
2023/07/10 08:59:27;;;;;;;1.42;0.57;;;21.20;99.90;;;;;;5019319;28;20076;-74
2023/07/10 09:01:54;;;;;;;0.70;0.50;;;21.30;99.90;;;;;;5036246;28;20183;-74
2023/07/10 09:04:21;;;;;;;0.88;0.50;;;21.40;99.90;;;;;;5018337;28;20053;-75
2023/07/10 09:06:50;;;;;;;1.15;0.60;;;21.50;99.90;;;;;;5037477;28;20041;-75
2023/07/10 09:09:40;;;;;;;1.08;0.45;;;21.60;99.90;;;;;;5004265;28;20158;-74
2023/07/10 09:12:27;;;;;;;1.25;0.50;;;21.70;99.90;;;;;;5022573;28;20616;-75
2023/07/10 09:14:58;;;;;;;1.52;0.60;;;21.80;99.90;;;;;;5022416;28;20049;-75
2023/07/10 09:17:56;;;;;;;1.88;0.80;;;21.80;99.90;;;;;;5022604;28;20064;-75
2023/07/10 09:20:24;;;;;;;2.72;0.90;;;21.70;99.90;;;;;;5022763;28;20092;-75
2023/07/10 09:22:59;;;;;;;1.65;0.50;;;21.70;99.90;;;;;;5022491;28;20656;-75
2023/07/10 09:25:26;;;;;;;1.05;0.60;;;21.80;99.90;;;;;;5040786;28;20122;-75
2023/07/10 09:27:53;;;;;;;1.48;0.75;;;21.90;99.90;;;;;;5039119;28;20056;-75
2023/07/10 09:30:26;;;;;;;2.17;0.63;;;21.90;99.90;;;;;;5021624;28;20869;-74
2023/07/10 09:33:03;;;;;;;1.33;0.70;;;22.00;99.90;;;;;;5040061;28;20477;-76
2023/07/10 09:35:30;;;;;;;1.38;0.63;;;22.10;99.90;;;;;;5050254;28;20402;-75
2023/07/10 09:37:57;;;;;;;2.78;0.70;;;22.30;99.90;;;;;;5021909;28;20056;-75
2023/07/10 09:40:36;;;;;;;1.30;0.57;;;22.30;99.90;;;;;;5002545;28;20107;-75
2023/07/10 09:43:04;;;;;;;1.48;0.80;;;22.30;99.90;;;;;;5010485;28;20052;-75
2023/07/10 09:45:33;;;;;;;0.98;0.50;;;22.40;99.90;;;;;;5039341;28;20560;-74
2023/07/10 09:48:00;;;;;;;1.75;0.82;;;22.40;99.90;;;;;;5040680;28;20056;-74
2023/07/10 09:50:26;;;;;;;1.75;0.73;;;22.30;99.90;;;;;;5024181;28;20173;-75
2023/07/10 09:52:55;;;;;;;2.08;0.95;;;22.30;99.90;;;;;;5041647;28;20085;-74
2023/07/10 09:55:23;;;;;;;1.38;0.60;;;22.30;99.90;;;;;;5025349;28;20376;-75
2023/07/10 09:57:57;;;;;;;1.83;0.50;;;22.30;99.90;;;;;;5041991;28;20045;-74
2023/07/10 10:00:24;;;;;;;1.02;0.50;;;22.50;99.90;;;;;;5024649;28;20061;-75
2023/07/10 10:03:02;;;;;;;1.85;0.68;;;22.70;99.90;;;;;;5007384;28;20105;-74
2023/07/10 10:05:29;;;;;;;0.98;0.45;;;22.70;99.90;;;;;;5024677;28;20095;-75
2023/07/10 10:08:04;;;;;;;0.98;0.50;;;22.80;99.90;;;;;;5042133;28;20487;-76
2023/07/10 10:10:32;;;;;;;1.73;0.80;;;22.90;99.90;;;;;;5024841;28;20056;-75
2023/07/10 10:13:18;;;;;;;1.95;0.75;;;23.10;99.90;;;;;;5024024;28;20055;-74
2023/07/10 10:16:14;;;;;;;1.15;0.70;;;23.40;99.90;;;;;;5042166;28;20098;-75
2023/07/10 10:18:45;;;;;;;2.28;0.68;;;23.50;99.90;;;;;;5026905;28;20103;-75
2023/07/10 10:21:14;;;;;;;2.63;1.35;;;23.80;99.90;;;;;;5024774;28;20071;-75
2023/07/10 10:23:42;;;;;;;1.52;0.70;;;24.10;99.90;;;;;;5041976;28;20049;-75
2023/07/10 10:26:14;;;;;;;1.13;0.55;;;24.10;99.90;;;;;;5025079;28;20431;-75
2023/07/10 10:28:48;;;;;;;;;;;24.30;99.90;;;;;;5024315;28;20433;-74
2023/07/10 10:31:16;;;;;;;0.95;0.55;;;24.40;99.90;;;;;;5008671;28;19931;-75
2023/07/10 10:33:51;;;;;;;0.80;0.40;;;24.50;99.10;;;;;;5023712;28;20053;-75
2023/07/10 10:36:46;;;;;;;1.63;0.60;;;24.50;98.50;;;;;;5024102;28;20052;-75
2023/07/10 10:39:26;;;;;;;1.58;0.90;;;24.50;99.10;;;;;;5023971;28;20052;-74
2023/07/10 10:41:59;;;;;;;2.25;0.82;;;24.60;98.90;;;;;;5023690;28;20064;-74
2023/07/10 10:44:44;;;;;;;2.28;1.00;;;25.00;98.60;;;;;;5022531;28;20584;-74
2023/07/10 10:47:15;;;;;;;1.00;0.65;;;24.90;97.80;;;;;;5024160;28;20053;-75
2023/07/10 10:50:02;;;;;;;1.73;0.60;;;25.00;97.70;;;;;;5024091;28;20052;-75
2023/07/10 10:52:41;;;;;;;2.28;0.60;;;25.10;98.00;;;;;;4991347;28;20068;-75
2023/07/10 10:55:35;;;;;;;1.08;0.52;;;25.50;98.00;;;;;;5023894;28;20060;-75
2023/07/10 10:58:06;;;;;;;1.50;0.50;;;25.40;97.10;;;;;;5040134;28;20504;-75
2023/07/10 11:00:57;;;;;;;0.70;0.50;;;25.30;97.40;;;;;;5041449;28;20048;-75
2023/07/10 11:03:31;;;;;;;1.25;0.50;;;25.40;96.40;;;;;;5041294;28;20389;-75
2023/07/10 11:06:12;;;;;;;1.70;0.65;;;25.40;96.60;;;;;;5023772;28;20053;-75
2023/07/10 11:08:42;;;;;;;1.48;0.68;;;25.30;96.40;;;;;;5022968;28;20618;-75
2023/07/10 11:11:16;;;;;;;1.20;0.60;;;25.40;96.20;;;;;;5024032;28;20084;-75
2023/07/10 11:13:42;;;;;;;1.17;0.63;;;25.70;95.80;;;;;;5022396;28;20130;-75
2023/07/10 11:16:09;;;;;;;1.63;0.70;;;26.00;95.90;;;;;;5023857;28;20334;-74
2023/07/10 11:18:37;;;;;;;2.70;0.65;;;26.00;95.30;;;;;;5023284;28;20040;-74
2023/07/10 11:21:04;;;;;;;0.90;0.63;;;26.10;95.30;;;;;;5023317;28;20061;-74
2023/07/10 11:23:36;;;;;;;0.80;0.30;;;26.10;95.40;;;;;;5022950;28;20052;-75
2023/07/10 11:26:13;;;;;;;0.77;0.40;;;26.20;95.10;;;;;;5023703;28;20278;-75
2023/07/10 11:28:54;;;;;;;1.13;0.68;;;26.20;95.00;;;;;;5021601;28;20041;-74
2023/07/10 11:31:37;;;;;;;1.67;0.60;;;26.40;95.00;;;;;;5024046;28;20485;-74
2023/07/10 11:34:07;;;;;;;1.73;0.60;;;26.60;94.50;;;;;;5006813;28;20077;-74
2023/07/10 11:36:34;;;;;;;1.63;0.60;;;26.50;94.60;;;;;;5041554;28;20045;-75
2023/07/10 11:39:07;;;;;;;1.33;0.60;;;26.50;94.80;;;;;;5040919;28;20133;-75
2023/07/10 11:41:35;;;;;;;1.75;0.70;;;26.60;94.40;;;;;;5040383;28;20071;-75
2023/07/10 11:44:16;;;;;;;1.33;0.70;;;26.70;95.00;;;;;;5021815;28;20059;-76
2023/07/10 11:47:05;;;;;;;1.02;0.50;;;26.50;93.80;;;;;;5022813;28;20106;-75
2023/07/10 11:49:35;;;;;;;1.00;0.60;;;26.20;94.00;;;;;;5040117;28;20048;-75
2023/07/10 11:52:14;;;;;;;1.38;0.60;;;26.10;94.60;;;;;;5040525;28;20096;-74
2023/07/10 11:54:48;;;;;;;0.70;0.50;;;26.10;94.20;;;;;;5040063;28;20084;-75
2023/07/10 11:57:24;;;;;;;0.88;0.40;;;26.30;94.20;;;;;;5023527;28;20049;-75
2023/07/10 11:59:55;;;;;;;1.17;0.47;;;26.40;94.10;;;;;;5021551;28;20081;-75
2023/07/10 12:02:44;;;;;;;1.23;0.50;;;26.50;93.80;;;;;;5040488;28;20106;-75
2023/07/10 12:05:14;;;;;;;0.50;0.50;;;26.50;94.70;;;;;;5006066;28;20041;-75
2023/07/10 12:08:06;;;;;;;1.58;0.60;;;26.50;93.40;;;;;;5022298;28;20056;-75
2023/07/10 12:10:46;;;;;;;0.88;0.40;;;26.80;93.10;;;;;;5024057;28;20072;-75
2023/07/10 12:13:29;;;;;;;1.17;0.68;;;26.40;93.50;;;;;;5005563;28;20147;-75
2023/07/10 12:15:58;;;;;;;0.57;0.43;;;26.80;94.10;;;;;;5007982;28;20366;-75
2023/07/10 12:18:31;;;;;;;0.98;0.50;;;27.30;93.20;;;;;;5022736;28;20049;-75
2023/07/10 12:21:00;;;;;;;1.27;0.60;;;27.40;92.50;;;;;;5005854;28;20060;-75
2023/07/10 12:23:27;;;;;;;0.98;0.50;;;27.20;93.30;;;;;;5022272;28;20049;-75
2023/07/10 12:25:55;;;;;;;2.58;0.65;;;27.00;92.20;;;;;;5022773;28;20110;-75
2023/07/10 12:28:23;;;;;;;1.65;0.80;;;27.00;92.30;;;;;;5021534;28;20138;-76
2023/07/10 12:30:55;;;;;;;1.38;0.77;;;27.20;92.40;;;;;;5006268;28;20044;-75
2023/07/10 12:33:29;;;;;;;1.05;0.57;;;27.50;92.10;;;;;;5005857;28;20053;-75
2023/07/10 12:36:01;;;;;;;1.77;0.60;;;27.40;92.50;;;;;;5003123;28;20099;-74
2023/07/10 12:38:28;;;;;;;1.13;0.50;;;27.80;92.00;;;;;;5011997;28;20136;-75
2023/07/10 12:40:55;;;;;;;0.90;0.60;;;28.10;92.20;;;;;;5006558;28;20045;-75
2023/07/10 12:43:24;;;;;;;1.75;0.70;;;28.60;90.90;;;;;;5007199;28;20128;-76
2023/07/10 12:46:12;;;;;;;0.63;0.40;;;28.40;90.80;;;;;;5027207;28;20053;-75
2023/07/10 12:48:40;;;;;;;0.88;0.50;;;28.30;91.10;;;;;;5027060;28;20182;-76
2023/07/10 12:51:06;;;;;;;1.05;0.50;;;28.20;90.70;;;;;;5025874;28;20060;-75
2023/07/10 12:53:38;;;;;;;1.15;0.50;;;28.60;90.00;;;;;;5026404;28;20103;-75
2023/07/10 12:56:20;;;;;;;0.80;0.50;;;29.00;88.60;;;;;;5026759;28;20106;-75
2023/07/10 12:58:47;;;;;;;3.08;1.25;;;29.20;88.40;;;;;;5025880;28;20053;-75
2023/07/10 13:01:21;;;;;;;0.98;0.55;;;29.10;87.90;;;;;;5009903;28;20049;-75
2023/07/10 13:04:03;;;;;;;1.58;0.75;;;29.30;88.90;;;;;;5025746;28;20063;-75